Manon — 9V9244 — position and weather

sailwx.info

Track history (hours):
 
Tides and Currents Weather Stations Pressure Air Temp Water Temp Dewpoint Dewpoint Depression Visibility Wind Speed Wind Dir Waves Ship Positions

Manon

Last reported at 2017-Nov-10 17:19 UTC. Time now 2017-Nov-22 05:43 UTC.
Position N 21°49' W 017°54'.
Warning: this ship's position is 11 days out of date.

Length 228 m; draft 9.8 m.

Type: Cargo ship. MMSI: 566184000.

Date/timePositionNaut miles runAvg speedWind from/ knotsBaromVisibWave heightAir tempDewpointWater temp
2017-Nov-10 17:19N 21°49' W 017°54'1617.3
2017-Nov-10 16:24N 22°05' W 017°50'817.4
2017-Nov-10 15:58N 22°12' W 017°49'917.2
2017-Nov-10 15:27N 22°21' W 017°47'817.1
2017-Nov-10 15:00N 22°28' W 017°44'817.0
2017-Nov-10 14:30N 22°37' W 017°43'917.7
2017-Nov-10 14:00N 22°45' W 017°40'917.3
2017-Nov-10 13:29N 22°54' W 017°38'1017.4
2017-Nov-10 12:55N 23°04' W 017°36'917.6
2017-Nov-10 12:24N 23°12' W 017°34'717.7
2017-Nov-10 12:00N 23°19' W 017°32'917.6
2017-Nov-10 11:28N 23°28' W 017°29'917.3
2017-Nov-10 10:58N 23°37' W 017°27'25117.5
2017-Nov-09 20:39N 27°41' W 016°26'317.9
2017-Nov-09 20:30N 27°44' W 016°25'3917.3
2017-Nov-09 18:14N 28°18' W 016°03'417.0
2017-Nov-09 18:00N 28°21' W 016°00'816.8
2017-Nov-09 17:30N 28°28' W 015°54'816.8
2017-Nov-09 17:00N 28°34' W 015°48'816.6
2017-Nov-09 16:30N 28°42' W 015°44'916.9
2017-Nov-09 16:00N 28°50' W 015°41'816.6
2017-Nov-09 15:30N 28°58' W 015°39'2516.4
2017-Nov-09 13:58N 29°22' W 015°31'816.4
2017-Nov-09 13:29N 29°30' W 015°28'1016.5
2017-Nov-09 12:54N 29°39' W 015°25'716.5
2017-Nov-09 12:30N 29°45' W 015°23'  
2017-Nov-07 01:41N 44°13' W 007°48'1215.8
2017-Nov-07 00:55N 44°13' W 007°31'7016.4
2017-Nov-06 20:39N 43°58' W 005°56'316.3
2017-Nov-06 20:30N 43°57' W 005°53'95 5.2
2017-Nov-06 02:28N 43°27' W 003°49'0 0.0
2017-Nov-06 01:49N 43°27' W 003°49'0 0.0
2017-Nov-06 01:28N 43°27' W 003°49'0 0.0
2017-Nov-06 00:58N 43°27' W 003°49'0 0.0
2017-Nov-06 00:28N 43°27' W 003°49'0 0.0
2017-Nov-05 23:55N 43°27' W 003°49'0 0.0
2017-Nov-05 23:17N 43°27' W 003°49'0 0.0
2017-Nov-05 23:00N 43°27' W 003°49'0 0.0
2017-Nov-05 22:30N 43°27' W 003°49'0 0.0
2017-Nov-05 22:01N 43°27' W 003°49'0 0.0
2017-Nov-05 21:30N 43°27' W 003°49'0 0.0
2017-Nov-05 21:00N 43°27' W 003°49'0 0.0
2017-Nov-05 20:31N 43°27' W 003°49'0 0.7
2017-Nov-05 20:00N 43°27' W 003°49'3 5.2
2017-Nov-05 19:30N 43°28' W 003°46'4 8.0
2017-Nov-05 19:00N 43°32' W 003°45'612.6
2017-Nov-05 18:30N 43°38' W 003°47'816.8
2017-Nov-05 18:01N 43°45' W 003°52'1916.8
2017-Nov-05 16:53N 44°03' W 004°01'34914.2
2017-Nov-04 16:19N 49°52' W 003°56'815.4
2017-Nov-04 15:49N 49°57' W 003°47'515.6
2017-Nov-04 15:30N 49°59' W 003°40'816.0
2017-Nov-04 15:00N 50°04' W 003°30'815.9
2017-Nov-04 14:30N 50°06' W 003°19'816.7
2017-Nov-04 14:00N 50°10' W 003°07'917.1
2017-Nov-04 13:30N 50°13' W 002°54'917.3
2017-Nov-04 13:00N 50°14' W 002°41'917.6
2017-Nov-04 12:30N 50°16' W 002°27'1817.0
2017-Nov-04 11:26N 50°21' W 002°00'1815.2
2017-Nov-04 10:15N 50°26' W 001°33'613.8
2017-Nov-04 09:50N 50°27' W 001°24'613.1
2017-Nov-04 09:23N 50°29' W 001°15'512.3
2017-Nov-04 09:00N 50°31' W 001°08'612.0
2017-Nov-04 08:30N 50°32' W 000°59'713.6
2017-Nov-04 08:00N 50°39' W 000°57'4 8.6
2017-Nov-04 07:30N 50°43' W 000°60'816.5
2017-Nov-04 07:00N 50°46' W 001°12'510.4
2017-Nov-04 06:30N 50°49' W 001°18'4 7.2
2017-Nov-04 06:00N 50°52' W 001°22'2 2.7
2017-Nov-04 05:24N 50°53' W 001°24'0 0.0
2017-Nov-04 05:01N 50°53' W 001°24'0 0.0
2017-Nov-04 04:31N 50°53' W 001°24'0 0.0
2017-Nov-04 04:00N 50°53' W 001°24'0 0.0
2017-Nov-04 03:27N 50°53' W 001°24'0 0.0
2017-Nov-04 03:00N 50°53' W 001°24'0 0.0
2017-Nov-04 02:30N 50°53' W 001°24'0 0.0
2017-Nov-04 01:42N 50°53' W 001°24'0 0.0
2017-Nov-04 01:27N 50°53' W 001°24'0 0.0
2017-Nov-04 00:57N 50°53' W 001°24'0 0.0
2017-Nov-04 00:30N 50°53' W 001°24'0 0.0
2017-Nov-03 23:51N 50°53' W 001°24'0 0.0
2017-Nov-03 23:30N 50°53' W 001°24'0 0.0
2017-Nov-03 22:54N 50°53' W 001°24'0 0.0
2017-Nov-03 22:30N 50°53' W 001°24'0 0.0
2017-Nov-03 21:48N 50°53' W 001°24'0 0.0
2017-Nov-03 21:24N 50°53' W 001°24'0 0.0
2017-Nov-03 21:00N 50°53' W 001°24'0 0.0
2017-Nov-03 20:27N 50°53' W 001°24'0 0.0
2017-Nov-03 19:57N 50°53' W 001°24'0 0.0
2017-Nov-03 19:30N 50°53' W 001°24'0 0.0
2017-Nov-03 18:57N 50°53' W 001°24'0 0.0
2017-Nov-03 18:27N 50°53' W 001°24'0 0.0
2017-Nov-03 18:00N 50°53' W 001°24'0 0.0
2017-Nov-03 17:27N 50°53' W 001°24'0 0.0
2017-Nov-03 16:57N 50°53' W 001°24'0 0.0
2017-Nov-03 16:15N 50°53' W 001°24'0 0.0
2017-Nov-03 15:54N 50°53' W 001°24'0 0.0
2017-Nov-03 15:27N 50°53' W 001°24'0 0.0
2017-Nov-03 14:57N 50°53' W 001°24'0 0.0
2017-Nov-03 14:30N 50°53' W 001°24'0 0.0
2017-Nov-03 14:01N 50°53' W 001°24'0 0.4
2017-Nov-03 13:31N 50°53' W 001°24'2 4.9
2017-Nov-03 13:00N 50°51' W 001°21'3 6.7
2017-Nov-03 12:30N 50°49' W 001°17'3 5.1
2017-Nov-03 12:00N 50°46' W 001°16'612.1
2017-Nov-03 11:30N 50°45' W 001°07'611.9
2017-Nov-03 11:00N 50°42' W 000°58'4 7.6
2017-Nov-03 10:30N 50°39' W 000°55'4 8.0
2017-Nov-03 10:00N 50°37' W 000°49'4 8.3
2017-Nov-03 09:30N 50°35' W 000°44'0 0.9
2017-Nov-03 09:00N 50°35' W 000°44'1 1.6
2017-Nov-03 08:30N 50°35' W 000°46'1 1.7
2017-Nov-03 08:00N 50°35' W 000°47'1 1.6
2017-Nov-03 07:30N 50°36' W 000°48'1 1.0
2017-Nov-03 07:00N 50°36' W 000°47'2 4.6
2017-Nov-03 06:30N 50°35' W 000°44'0 0.8
2017-Nov-03 06:00N 50°35' W 000°45'1 1.9
2017-Nov-03 05:30N 50°35' W 000°46'1 2.1
2017-Nov-03 05:00N 50°36' W 000°47'2 3.7
2017-Nov-03 04:30N 50°37' W 000°50'4 7.7
2017-Nov-03 04:00N 50°36' W 000°44'714.0
2017-Nov-03 03:30N 50°35' W 000°33'714.8
2017-Nov-03 03:01N 50°34' W 000°21'713.8
2017-Nov-03 02:30N 50°33' W 000°11'613.0
2017-Nov-03 02:00N 50°32' W 000°00'714.7
2017-Nov-03 01:30N 50°34' E 000°11'815.2
2017-Nov-03 01:01N 50°35' E 000°23'714.9
2017-Nov-03 00:31N 50°37' E 000°34'815.4
2017-Nov-03 00:01N 50°41' E 000°44'815.2
2017-Nov-02 23:31N 50°45' E 000°54'714.7
2017-Nov-02 23:01N 50°49' E 001°04'714.3
2017-Nov-02 22:30N 50°55' E 001°12'714.0
2017-Nov-02 22:00N 50°60' E 001°19'713.2
2017-Nov-02 21:30N 51°04' E 001°27'714.4
2017-Nov-02 21:00N 51°09' E 001°36'815.1
2017-Nov-02 20:30N 51°14' E 001°45'816.7
2017-Nov-02 20:00N 51°21' E 001°51'917.5
2017-Nov-02 19:31N 51°29' E 001°59'917.5
2017-Nov-02 19:00N 51°35' E 002°08'1017.6
2017-Nov-02 18:27N 51°42' E 002°19'7516.0
2017-Nov-02 13:45N 52°41' E 003°35'415.1
2017-Nov-02 13:30N 52°44' E 003°39'815.0
2017-Nov-02 12:58N 52°50' E 003°48'715.0
2017-Nov-02 12:30N 52°55' E 003°55'815.1
2017-Nov-02 12:00N 53°01' E 004°05'815.8
2017-Nov-02 11:30N 53°06' E 004°15'816.1
2017-Nov-02 11:00N 53°11' E 004°25'11615.0
2017-Nov-02 03:16N 53°58' E 007°23'615.5
2017-Nov-02 02:54N 53°59' E 007°33'513.5
2017-Nov-02 02:30N 53°57' E 007°41'714.0
2017-Nov-02 02:00N 53°53' E 007°50'612.5
2017-Nov-02 01:30N 53°51' E 008°00'815.0
2017-Nov-02 01:00N 53°46' E 008°10'816.0
2017-Nov-02 00:30N 53°41' E 008°21'815.3
2017-Nov-02 00:00N 53°36' E 008°30'3 5.4
2017-Nov-01 23:30N 53°34' E 008°33'0 0.4
2017-Nov-01 23:00N 53°34' E 008°33'0 0.8
2017-Nov-01 22:30N 53°35' E 008°33'0 0.0
2017-Nov-01 22:00N 53°35' E 008°33'0 0.0
2017-Nov-01 21:28N 53°35' E 008°33'0 0.0
2017-Nov-01 20:58N 53°35' E 008°33'0 0.0
2017-Nov-01 20:28N 53°35' E 008°33'0 0.0
2017-Nov-01 19:58N 53°35' E 008°33'0 0.0
2017-Nov-01 19:28N 53°35' E 008°33'0 0.0
2017-Nov-01 18:58N 53°35' E 008°33'0 0.0
2017-Nov-01 18:28N 53°35' E 008°33'0 0.0
2017-Nov-01 02:00N 53°35' E 008°33'0 0.0
2017-Nov-01 01:30N 53°35' E 008°33'0 0.0
2017-Nov-01 01:00N 53°35' E 008°33'0 0.0
2017-Nov-01 00:30N 53°35' E 008°33'0 0.0
2017-Nov-01 00:00N 53°35' E 008°33'0 0.0
2017-Oct-31 23:27N 53°35' E 008°33'0 0.0
2017-Oct-31 23:00N 53°35' E 008°33'0 0.0
2017-Oct-31 22:30N 53°35' E 008°33'0 0.0
2017-Oct-31 22:00N 53°35' E 008°33'0 0.9
2017-Oct-31 21:30N 53°34' E 008°33'1 1.3
2017-Oct-31 21:01N 53°34' E 008°32'611.2
2017-Oct-31 20:30N 53°39' E 008°25'917.6
2017-Oct-31 20:00N 53°44' E 008°14'917.5
2017-Oct-31 19:30N 53°50' E 008°03'814.8
2017-Oct-31 19:00N 53°52' E 007°51'612.5
2017-Oct-31 18:30N 53°53' E 007°41'  
Track history (hours):
 
Tides and Currents Weather Stations Pressure Air Temp Water Temp Dewpoint Dewpoint Depression Visibility Wind Speed Wind Dir Waves Ship Positions

Manon

Last reported at 2017-Nov-10 17:19 UTC. Time now 2017-Nov-22 05:43 UTC.
Position N 21°49' W 017°54'.
Warning: this ship's position is 11 days out of date.

Length 228 m; draft 9.8 m.

Type: Cargo ship. MMSI: 566184000.

Date/timePositionNaut miles runAvg speedWind from/ knotsBaromVisibWave heightAir tempDewpointWater temp
2017-Nov-10 17:19N 21°49' W 017°54'1617.3
2017-Nov-10 16:24N 22°05' W 017°50'817.4
2017-Nov-10 15:58N 22°12' W 017°49'917.2
2017-Nov-10 15:27N 22°21' W 017°47'817.1
2017-Nov-10 15:00N 22°28' W 017°44'817.0
2017-Nov-10 14:30N 22°37' W 017°43'917.7
2017-Nov-10 14:00N 22°45' W 017°40'917.3
2017-Nov-10 13:29N 22°54' W 017°38'1017.4
2017-Nov-10 12:55N 23°04' W 017°36'917.6
2017-Nov-10 12:24N 23°12' W 017°34'717.7
2017-Nov-10 12:00N 23°19' W 017°32'917.6
2017-Nov-10 11:28N 23°28' W 017°29'917.3
2017-Nov-10 10:58N 23°37' W 017°27'25117.5
2017-Nov-09 20:39N 27°41' W 016°26'317.9
2017-Nov-09 20:30N 27°44' W 016°25'3917.3
2017-Nov-09 18:14N 28°18' W 016°03'417.0
2017-Nov-09 18:00N 28°21' W 016°00'816.8
2017-Nov-09 17:30N 28°28' W 015°54'816.8
2017-Nov-09 17:00N 28°34' W 015°48'816.6
2017-Nov-09 16:30N 28°42' W 015°44'916.9
2017-Nov-09 16:00N 28°50' W 015°41'816.6
2017-Nov-09 15:30N 28°58' W 015°39'2516.4
2017-Nov-09 13:58N 29°22' W 015°31'816.4
2017-Nov-09 13:29N 29°30' W 015°28'1016.5
2017-Nov-09 12:54N 29°39' W 015°25'716.5
2017-Nov-09 12:30N 29°45' W 015°23'  
2017-Nov-07 01:41N 44°13' W 007°48'1215.8
2017-Nov-07 00:55N 44°13' W 007°31'7016.4
2017-Nov-06 20:39N 43°58' W 005°56'316.3
2017-Nov-06 20:30N 43°57' W 005°53'95 5.2
2017-Nov-06 02:28N 43°27' W 003°49'0 0.0
2017-Nov-06 01:49N 43°27' W 003°49'0 0.0
2017-Nov-06 01:28N 43°27' W 003°49'0 0.0
2017-Nov-06 00:58N 43°27' W 003°49'0 0.0
2017-Nov-06 00:28N 43°27' W 003°49'0 0.0
2017-Nov-05 23:55N 43°27' W 003°49'0 0.0
2017-Nov-05 23:17N 43°27' W 003°49'0 0.0
2017-Nov-05 23:00N 43°27' W 003°49'0 0.0
2017-Nov-05 22:30N 43°27' W 003°49'0 0.0
2017-Nov-05 22:01N 43°27' W 003°49'0 0.0
2017-Nov-05 21:30N 43°27' W 003°49'0 0.0
2017-Nov-05 21:00N 43°27' W 003°49'0 0.0
2017-Nov-05 20:31N 43°27' W 003°49'0 0.7
2017-Nov-05 20:00N 43°27' W 003°49'3 5.2
2017-Nov-05 19:30N 43°28' W 003°46'4 8.0
2017-Nov-05 19:00N 43°32' W 003°45'612.6
2017-Nov-05 18:30N 43°38' W 003°47'816.8
2017-Nov-05 18:01N 43°45' W 003°52'1916.8
2017-Nov-05 16:53N 44°03' W 004°01'34914.2
2017-Nov-04 16:19N 49°52' W 003°56'815.4
2017-Nov-04 15:49N 49°57' W 003°47'515.6
2017-Nov-04 15:30N 49°59' W 003°40'816.0
2017-Nov-04 15:00N 50°04' W 003°30'815.9
2017-Nov-04 14:30N 50°06' W 003°19'816.7
2017-Nov-04 14:00N 50°10' W 003°07'917.1
2017-Nov-04 13:30N 50°13' W 002°54'917.3
2017-Nov-04 13:00N 50°14' W 002°41'917.6
2017-Nov-04 12:30N 50°16' W 002°27'1817.0
2017-Nov-04 11:26N 50°21' W 002°00'1815.2
2017-Nov-04 10:15N 50°26' W 001°33'613.8
2017-Nov-04 09:50N 50°27' W 001°24'613.1
2017-Nov-04 09:23N 50°29' W 001°15'512.3
2017-Nov-04 09:00N 50°31' W 001°08'612.0
2017-Nov-04 08:30N 50°32' W 000°59'713.6
2017-Nov-04 08:00N 50°39' W 000°57'4 8.6
2017-Nov-04 07:30N 50°43' W 000°60'816.5
2017-Nov-04 07:00N 50°46' W 001°12'510.4
2017-Nov-04 06:30N 50°49' W 001°18'4 7.2
2017-Nov-04 06:00N 50°52' W 001°22'2 2.7
2017-Nov-04 05:24N 50°53' W 001°24'0 0.0
2017-Nov-04 05:01N 50°53' W 001°24'0 0.0
2017-Nov-04 04:31N 50°53' W 001°24'0 0.0
2017-Nov-04 04:00N 50°53' W 001°24'0 0.0
2017-Nov-04 03:27N 50°53' W 001°24'0 0.0
2017-Nov-04 03:00N 50°53' W 001°24'0 0.0
2017-Nov-04 02:30N 50°53' W 001°24'0 0.0
2017-Nov-04 01:42N 50°53' W 001°24'0 0.0
2017-Nov-04 01:27N 50°53' W 001°24'0 0.0
2017-Nov-04 00:57N 50°53' W 001°24'0 0.0
2017-Nov-04 00:30N 50°53' W 001°24'0 0.0
2017-Nov-03 23:51N 50°53' W 001°24'0 0.0
2017-Nov-03 23:30N 50°53' W 001°24'0 0.0
2017-Nov-03 22:54N 50°53' W 001°24'0 0.0
2017-Nov-03 22:30N 50°53' W 001°24'0 0.0
2017-Nov-03 21:48N 50°53' W 001°24'0 0.0
2017-Nov-03 21:24N 50°53' W 001°24'0 0.0
2017-Nov-03 21:00N 50°53' W 001°24'0 0.0
2017-Nov-03 20:27N 50°53' W 001°24'0 0.0
2017-Nov-03 19:57N 50°53' W 001°24'0 0.0
2017-Nov-03 19:30N 50°53' W 001°24'0 0.0
2017-Nov-03 18:57N 50°53' W 001°24'0 0.0
2017-Nov-03 18:27N 50°53' W 001°24'0 0.0
2017-Nov-03 18:00N 50°53' W 001°24'0 0.0
2017-Nov-03 17:27N 50°53' W 001°24'0 0.0
2017-Nov-03 16:57N 50°53' W 001°24'0 0.0
2017-Nov-03 16:15N 50°53' W 001°24'0 0.0
2017-Nov-03 15:54N 50°53' W 001°24'0 0.0
2017-Nov-03 15:27N 50°53' W 001°24'0 0.0
2017-Nov-03 14:57N 50°53' W 001°24'0 0.0
2017-Nov-03 14:30N 50°53' W 001°24'0 0.0
2017-Nov-03 14:01N 50°53' W 001°24'0 0.4
2017-Nov-03 13:31N 50°53' W 001°24'2 4.9
2017-Nov-03 13:00N 50°51' W 001°21'3 6.7
2017-Nov-03 12:30N 50°49' W 001°17'3 5.1
2017-Nov-03 12:00N 50°46' W 001°16'612.1
2017-Nov-03 11:30N 50°45' W 001°07'611.9
2017-Nov-03 11:00N 50°42' W 000°58'4 7.6
2017-Nov-03 10:30N 50°39' W 000°55'4 8.0
2017-Nov-03 10:00N 50°37' W 000°49'4 8.3
2017-Nov-03 09:30N 50°35' W 000°44'0 0.9
2017-Nov-03 09:00N 50°35' W 000°44'1 1.6
2017-Nov-03 08:30N 50°35' W 000°46'1 1.7
2017-Nov-03 08:00N 50°35' W 000°47'1 1.6
2017-Nov-03 07:30N 50°36' W 000°48'1 1.0
2017-Nov-03 07:00N 50°36' W 000°47'2 4.6
2017-Nov-03 06:30N 50°35' W 000°44'0 0.8
2017-Nov-03 06:00N 50°35' W 000°45'1 1.9
2017-Nov-03 05:30N 50°35' W 000°46'1 2.1
2017-Nov-03 05:00N 50°36' W 000°47'2 3.7
2017-Nov-03 04:30N 50°37' W 000°50'4 7.7
2017-Nov-03 04:00N 50°36' W 000°44'714.0
2017-Nov-03 03:30N 50°35' W 000°33'714.8
2017-Nov-03 03:01N 50°34' W 000°21'713.8
2017-Nov-03 02:30N 50°33' W 000°11'613.0
2017-Nov-03 02:00N 50°32' W 000°00'714.7
2017-Nov-03 01:30N 50°34' E 000°11'815.2
2017-Nov-03 01:01N 50°35' E 000°23'714.9
2017-Nov-03 00:31N 50°37' E 000°34'815.4
2017-Nov-03 00:01N 50°41' E 000°44'815.2
2017-Nov-02 23:31N 50°45' E 000°54'714.7
2017-Nov-02 23:01N 50°49' E 001°04'714.3
2017-Nov-02 22:30N 50°55' E 001°12'714.0
2017-Nov-02 22:00N 50°60' E 001°19'713.2
2017-Nov-02 21:30N 51°04' E 001°27'714.4
2017-Nov-02 21:00N 51°09' E 001°36'815.1
2017-Nov-02 20:30N 51°14' E 001°45'816.7
2017-Nov-02 20:00N 51°21' E 001°51'917.5
2017-Nov-02 19:31N 51°29' E 001°59'917.5
2017-Nov-02 19:00N 51°35' E 002°08'1017.6
2017-Nov-02 18:27N 51°42' E 002°19'7516.0
2017-Nov-02 13:45N 52°41' E 003°35'415.1
2017-Nov-02 13:30N 52°44' E 003°39'815.0
2017-Nov-02 12:58N 52°50' E 003°48'715.0
2017-Nov-02 12:30N 52°55' E 003°55'815.1
2017-Nov-02 12:00N 53°01' E 004°05'815.8
2017-Nov-02 11:30N 53°06' E 004°15'816.1
2017-Nov-02 11:00N 53°11' E 004°25'11615.0
2017-Nov-02 03:16N 53°58' E 007°23'615.5
2017-Nov-02 02:54N 53°59' E 007°33'513.5
2017-Nov-02 02:30N 53°57' E 007°41'714.0
2017-Nov-02 02:00N 53°53' E 007°50'612.5
2017-Nov-02 01:30N 53°51' E 008°00'815.0
2017-Nov-02 01:00N 53°46' E 008°10'816.0
2017-Nov-02 00:30N 53°41' E 008°21'815.3
2017-Nov-02 00:00N 53°36' E 008°30'3 5.4
2017-Nov-01 23:30N 53°34' E 008°33'0 0.4
2017-Nov-01 23:00N 53°34' E 008°33'0 0.8
2017-Nov-01 22:30N 53°35' E 008°33'0 0.0
2017-Nov-01 22:00N 53°35' E 008°33'0 0.0
2017-Nov-01 21:28N 53°35' E 008°33'0 0.0
2017-Nov-01 20:58N 53°35' E 008°33'0 0.0
2017-Nov-01 20:28N 53°35' E 008°33'0 0.0
2017-Nov-01 19:58N 53°35' E 008°33'0 0.0
2017-Nov-01 19:28N 53°35' E 008°33'0 0.0
2017-Nov-01 18:58N 53°35' E 008°33'0 0.0
2017-Nov-01 18:28N 53°35' E 008°33'0 0.0
2017-Nov-01 02:00N 53°35' E 008°33'0 0.0
2017-Nov-01 01:30N 53°35' E 008°33'0 0.0
2017-Nov-01 01:00N 53°35' E 008°33'0 0.0
2017-Nov-01 00:30N 53°35' E 008°33'0 0.0
2017-Nov-01 00:00N 53°35' E 008°33'0 0.0
2017-Oct-31 23:27N 53°35' E 008°33'0 0.0
2017-Oct-31 23:00N 53°35' E 008°33'0 0.0
2017-Oct-31 22:30N 53°35' E 008°33'0 0.0
2017-Oct-31 22:00N 53°35' E 008°33'0 0.9
2017-Oct-31 21:30N 53°34' E 008°33'1 1.3
2017-Oct-31 21:01N 53°34' E 008°32'611.2
2017-Oct-31 20:30N 53°39' E 008°25'917.6
2017-Oct-31 20:00N 53°44' E 008°14'917.5
2017-Oct-31 19:30N 53°50' E 008°03'814.8
2017-Oct-31 19:00N 53°52' E 007°51'612.5
2017-Oct-31 18:30N 53°53' E 007°41'  

Dump ship's entire track history